sensor_id;sensor_type;location;lat;lon;timestamp;temperature;humidity
46508;DHT22;32223;53.654;10.014;2023-05-18T00:02:06;7.00;99.90
46508;DHT22;32223;53.654;10.014;2023-05-18T00:04:33;6.90;99.90
46508;DHT22;32223;53.654;10.014;2023-05-18T00:07:00;6.90;99.90
46508;DHT22;32223;53.654;10.014;2023-05-18T00:09:30;6.90;99.90
46508;DHT22;32223;53.654;10.014;2023-05-18T00:11:57;6.90;99.90
46508;DHT22;32223;53.654;10.014;2023-05-18T00:14:23;6.90;99.90
46508;DHT22;32223;53.654;10.014;2023-05-18T00:16:48;6.90;99.90
46508;DHT22;32223;53.654;10.014;2023-05-18T00:19:14;6.90;99.90
46508;DHT22;32223;53.654;10.014;2023-05-18T00:21:41;7.10;99.90
46508;DHT22;32223;53.654;10.014;2023-05-18T00:24:10;7.10;99.90
46508;DHT22;32223;53.654;10.014;2023-05-18T00:26:40;7.20;99.90
46508;DHT22;32223;53.654;10.014;2023-05-18T00:29:07;7.20;99.90
46508;DHT22;32223;53.654;10.014;2023-05-18T00:31:33;7.20;99.90
46508;DHT22;32223;53.654;10.014;2023-05-18T00:34:02;7.10;99.90
46508;DHT22;32223;53.654;10.014;2023-05-18T00:36:28;7.10;99.90
46508;DHT22;32223;53.654;10.014;2023-05-18T00:38:54;7.10;99.90
46508;DHT22;32223;53.654;10.014;2023-05-18T00:41:19;7.10;99.90
46508;DHT22;32223;53.654;10.014;2023-05-18T00:43:46;7.10;99.90
46508;DHT22;32223;53.654;10.014;2023-05-18T00:46:11;7.10;99.90
46508;DHT22;32223;53.654;10.014;2023-05-18T00:48:37;7.10;99.90
46508;DHT22;32223;53.654;10.014;2023-05-18T00:51:03;7.20;99.90
46508;DHT22;32223;53.654;10.014;2023-05-18T00:53:31;7.20;99.90
46508;DHT22;32223;53.654;10.014;2023-05-18T00:55:57;7.20;99.90
46508;DHT22;32223;53.654;10.014;2023-05-18T00:58:23;7.20;99.90
46508;DHT22;32223;53.654;10.014;2023-05-18T01:00:49;7.20;99.90
46508;DHT22;32223;53.654;10.014;2023-05-18T01:03:14;7.20;99.90
46508;DHT22;32223;53.654;10.014;2023-05-18T01:05:40;7.20;99.90
46508;DHT22;32223;53.654;10.014;2023-05-18T01:08:06;7.20;99.90
46508;DHT22;32223;53.654;10.014;2023-05-18T01:10:35;7.20;99.90
46508;DHT22;32223;53.654;10.014;2023-05-18T01:13:05;7.20;99.90
46508;DHT22;32223;53.654;10.014;2023-05-18T01:15:37;7.20;99.90
46508;DHT22;32223;53.654;10.014;2023-05-18T01:20:47;7.20;99.90
46508;DHT22;32223;53.654;10.014;2023-05-18T01:28:24;7.20;99.90
46508;DHT22;32223;53.654;10.014;2023-05-18T01:30:53;7.20;99.90
46508;DHT22;32223;53.654;10.014;2023-05-18T01:33:19;7.30;99.90
46508;DHT22;32223;53.654;10.014;2023-05-18T01:35:45;7.30;99.90
46508;DHT22;32223;53.654;10.014;2023-05-18T01:38:15;7.30;99.90
46508;DHT22;32223;53.654;10.014;2023-05-18T01:43:15;7.20;99.90
46508;DHT22;32223;53.654;10.014;2023-05-18T01:45:46;7.20;99.90
46508;DHT22;32223;53.654;10.014;2023-05-18T01:48:17;7.10;99.90
46508;DHT22;32223;53.654;10.014;2023-05-18T01:50:47;7.10;99.90
46508;DHT22;32223;53.654;10.014;2023-05-18T01:53:23;7.10;99.90
46508;DHT22;32223;53.654;10.014;2023-05-18T01:55:49;7.00;99.90
46508;DHT22;32223;53.654;10.014;2023-05-18T01:58:17;6.90;99.90
46508;DHT22;32223;53.654;10.014;2023-05-18T02:00:45;7.00;99.90
46508;DHT22;32223;53.654;10.014;2023-05-18T02:03:12;7.00;99.90
46508;DHT22;32223;53.654;10.014;2023-05-18T02:05:38;6.90;99.90
46508;DHT22;32223;53.654;10.014;2023-05-18T02:08:04;6.80;99.90
46508;DHT22;32223;53.654;10.014;2023-05-18T02:10:30;6.80;99.90
46508;DHT22;32223;53.654;10.014;2023-05-18T02:12:55;6.80;99.90
46508;DHT22;32223;53.654;10.014;2023-05-18T02:15:21;6.80;99.90
46508;DHT22;32223;53.654;10.014;2023-05-18T02:17:47;6.70;99.90
46508;DHT22;32223;53.654;10.014;2023-05-18T02:20:13;6.70;99.90
46508;DHT22;32223;53.654;10.014;2023-05-18T02:22:42;6.80;99.90
46508;DHT22;32223;53.654;10.014;2023-05-18T02:25:08;6.70;99.90
46508;DHT22;32223;53.654;10.014;2023-05-18T02:27:34;6.70;99.90
46508;DHT22;32223;53.654;10.014;2023-05-18T02:30:01;6.70;99.90
46508;DHT22;32223;53.654;10.014;2023-05-18T02:32:29;6.70;99.90
46508;DHT22;32223;53.654;10.014;2023-05-18T02:34:57;6.70;99.90
46508;DHT22;32223;53.654;10.014;2023-05-18T02:37:26;6.70;99.90
46508;DHT22;32223;53.654;10.014;2023-05-18T02:39:52;6.60;99.90
46508;DHT22;32223;53.654;10.014;2023-05-18T02:42:18;6.60;99.90
46508;DHT22;32223;53.654;10.014;2023-05-18T02:44:43;6.60;99.90
46508;DHT22;32223;53.654;10.014;2023-05-18T02:47:09;6.60;99.90
46508;DHT22;32223;53.654;10.014;2023-05-18T02:49:34;6.60;99.90
46508;DHT22;32223;53.654;10.014;2023-05-18T02:52:00;6.60;99.90
46508;DHT22;32223;53.654;10.014;2023-05-18T02:54:26;6.60;99.90
46508;DHT22;32223;53.654;10.014;2023-05-18T02:56:51;6.60;99.90
46508;DHT22;32223;53.654;10.014;2023-05-18T02:59:21;6.70;99.90
46508;DHT22;32223;53.654;10.014;2023-05-18T03:01:46;6.70;99.90
46508;DHT22;32223;53.654;10.014;2023-05-18T03:04:12;6.70;99.90
46508;DHT22;32223;53.654;10.014;2023-05-18T03:06:38;6.70;99.90
46508;DHT22;32223;53.654;10.014;2023-05-18T03:09:04;6.70;99.90
46508;DHT22;32223;53.654;10.014;2023-05-18T03:11:30;6.60;99.90
46508;DHT22;32223;53.654;10.014;2023-05-18T03:13:56;6.70;99.90
46508;DHT22;32223;53.654;10.014;2023-05-18T03:16:21;6.60;99.90
46508;DHT22;32223;53.654;10.014;2023-05-18T03:18:55;6.60;99.90
46508;DHT22;32223;53.654;10.014;2023-05-18T03:21:23;6.70;99.90
46508;DHT22;32223;53.654;10.014;2023-05-18T03:23:49;6.70;99.90
46508;DHT22;32223;53.654;10.014;2023-05-18T03:26:15;6.80;99.90
46508;DHT22;32223;53.654;10.014;2023-05-18T03:28:41;6.80;99.90
46508;DHT22;32223;53.654;10.014;2023-05-18T03:31:06;6.70;99.90
46508;DHT22;32223;53.654;10.014;2023-05-18T03:33:32;6.70;99.90
46508;DHT22;32223;53.654;10.014;2023-05-18T03:36:02;6.70;99.90
46508;DHT22;32223;53.654;10.014;2023-05-18T03:38:28;6.80;99.90
46508;DHT22;32223;53.654;10.014;2023-05-18T03:40:54;6.80;99.90
46508;DHT22;32223;53.654;10.014;2023-05-18T03:43:20;6.80;99.90
46508;DHT22;32223;53.654;10.014;2023-05-18T03:45:49;6.80;99.90
46508;DHT22;32223;53.654;10.014;2023-05-18T03:48:15;6.80;99.90
46508;DHT22;32223;53.654;10.014;2023-05-18T03:50:41;6.80;99.90
46508;DHT22;32223;53.654;10.014;2023-05-18T03:53:07;6.90;99.90
46508;DHT22;32223;53.654;10.014;2023-05-18T03:55:34;6.90;99.90
46508;DHT22;32223;53.654;10.014;2023-05-18T03:57:59;6.90;99.90
46508;DHT22;32223;53.654;10.014;2023-05-18T04:00:25;6.90;99.90
46508;DHT22;32223;53.654;10.014;2023-05-18T04:02:51;7.00;99.90
46508;DHT22;32223;53.654;10.014;2023-05-18T04:05:17;7.10;99.90
46508;DHT22;32223;53.654;10.014;2023-05-18T04:07:43;7.10;99.90
46508;DHT22;32223;53.654;10.014;2023-05-18T04:10:11;7.10;99.90
46508;DHT22;32223;53.654;10.014;2023-05-18T04:12:37;7.10;99.90
46508;DHT22;32223;53.654;10.014;2023-05-18T04:15:03;7.20;99.90
46508;DHT22;32223;53.654;10.014;2023-05-18T04:17:29;7.20;99.90
46508;DHT22;32223;53.654;10.014;2023-05-18T04:19:54;7.20;99.90
46508;DHT22;32223;53.654;10.014;2023-05-18T04:22:21;7.20;99.90
46508;DHT22;32223;53.654;10.014;2023-05-18T04:24:47;7.30;99.90
46508;DHT22;32223;53.654;10.014;2023-05-18T04:27:13;7.40;99.90
46508;DHT22;32223;53.654;10.014;2023-05-18T04:29:39;7.40;99.90
46508;DHT22;32223;53.654;10.014;2023-05-18T04:32:08;7.50;99.90
46508;DHT22;32223;53.654;10.014;2023-05-18T04:34:35;7.60;99.90
46508;DHT22;32223;53.654;10.014;2023-05-18T04:37:05;7.60;99.90
46508;DHT22;32223;53.654;10.014;2023-05-18T04:39:32;7.60;99.90
46508;DHT22;32223;53.654;10.014;2023-05-18T04:41:59;7.60;99.90
46508;DHT22;32223;53.654;10.014;2023-05-18T04:44:29;7.60;99.90
46508;DHT22;32223;53.654;10.014;2023-05-18T04:46:58;7.60;99.90
46508;DHT22;32223;53.654;10.014;2023-05-18T04:49:24;7.70;99.90
46508;DHT22;32223;53.654;10.014;2023-05-18T04:51:53;7.70;99.90
46508;DHT22;32223;53.654;10.014;2023-05-18T04:54:27;7.80;99.90
46508;DHT22;32223;53.654;10.014;2023-05-18T04:56:55;7.80;99.90
46508;DHT22;32223;53.654;10.014;2023-05-18T04:59:22;7.80;99.90
46508;DHT22;32223;53.654;10.014;2023-05-18T05:01:51;7.90;99.90
46508;DHT22;32223;53.654;10.014;2023-05-18T05:04:18;7.80;99.90
46508;DHT22;32223;53.654;10.014;2023-05-18T05:06:43;7.80;99.90
46508;DHT22;32223;53.654;10.014;2023-05-18T05:09:09;7.80;99.90
46508;DHT22;32223;53.654;10.014;2023-05-18T05:11:35;7.80;99.90
46508;DHT22;32223;53.654;10.014;2023-05-18T05:14:01;8.00;99.90
46508;DHT22;32223;53.654;10.014;2023-05-18T05:16:27;8.10;99.90
46508;DHT22;32223;53.654;10.014;2023-05-18T05:18:53;8.20;99.90
46508;DHT22;32223;53.654;10.014;2023-05-18T05:21:18;8.30;99.90
46508;DHT22;32223;53.654;10.014;2023-05-18T05:23:44;8.40;99.90
46508;DHT22;32223;53.654;10.014;2023-05-18T05:26:10;8.40;99.90
46508;DHT22;32223;53.654;10.014;2023-05-18T05:28:35;8.50;99.90
46508;DHT22;32223;53.654;10.014;2023-05-18T05:31:02;8.50;99.90
46508;DHT22;32223;53.654;10.014;2023-05-18T05:33:27;8.50;99.90
46508;DHT22;32223;53.654;10.014;2023-05-18T05:35:53;8.50;99.90
46508;DHT22;32223;53.654;10.014;2023-05-18T05:38:18;8.50;99.90
46508;DHT22;32223;53.654;10.014;2023-05-18T05:40:44;8.40;99.90
46508;DHT22;32223;53.654;10.014;2023-05-18T05:43:09;8.40;99.90
46508;DHT22;32223;53.654;10.014;2023-05-18T05:45:35;8.40;99.90
46508;DHT22;32223;53.654;10.014;2023-05-18T05:48:01;8.40;99.90
46508;DHT22;32223;53.654;10.014;2023-05-18T05:50:26;8.50;99.90
46508;DHT22;32223;53.654;10.014;2023-05-18T05:52:52;8.60;99.90
46508;DHT22;32223;53.654;10.014;2023-05-18T05:55:18;8.70;99.90
46508;DHT22;32223;53.654;10.014;2023-05-18T05:57:44;8.70;99.90
46508;DHT22;32223;53.654;10.014;2023-05-18T06:00:13;8.70;99.90
46508;DHT22;32223;53.654;10.014;2023-05-18T06:02:39;8.70;99.90
46508;DHT22;32223;53.654;10.014;2023-05-18T06:05:06;8.70;99.90
46508;DHT22;32223;53.654;10.014;2023-05-18T06:07:32;8.80;99.90
46508;DHT22;32223;53.654;10.014;2023-05-18T06:09:57;8.90;99.90
46508;DHT22;32223;53.654;10.014;2023-05-18T06:12:23;8.90;99.90
46508;DHT22;32223;53.654;10.014;2023-05-18T06:14:49;9.00;99.90
46508;DHT22;32223;53.654;10.014;2023-05-18T06:17:18;9.00;99.90
46508;DHT22;32223;53.654;10.014;2023-05-18T06:19:44;9.10;99.90
46508;DHT22;32223;53.654;10.014;2023-05-18T06:22:10;9.00;99.90
46508;DHT22;32223;53.654;10.014;2023-05-18T06:24:35;9.00;99.90
46508;DHT22;32223;53.654;10.014;2023-05-18T06:27:01;9.00;99.90
46508;DHT22;32223;53.654;10.014;2023-05-18T06:29:27;8.90;99.90
46508;DHT22;32223;53.654;10.014;2023-05-18T06:31:52;9.00;99.90
46508;DHT22;32223;53.654;10.014;2023-05-18T06:34:18;9.00;99.90
46508;DHT22;32223;53.654;10.014;2023-05-18T06:36:43;9.10;99.90
46508;DHT22;32223;53.654;10.014;2023-05-18T06:39:09;9.20;99.90
46508;DHT22;32223;53.654;10.014;2023-05-18T06:41:34;9.20;99.90
46508;DHT22;32223;53.654;10.014;2023-05-18T06:44:00;9.10;99.90
46508;DHT22;32223;53.654;10.014;2023-05-18T06:46:26;9.00;99.90
46508;DHT22;32223;53.654;10.014;2023-05-18T06:48:53;9.10;99.90
46508;DHT22;32223;53.654;10.014;2023-05-18T06:51:19;9.20;99.90
46508;DHT22;32223;53.654;10.014;2023-05-18T06:53:44;9.40;99.90
46508;DHT22;32223;53.654;10.014;2023-05-18T06:56:10;9.60;99.90
46508;DHT22;32223;53.654;10.014;2023-05-18T06:58:38;9.90;99.90
46508;DHT22;32223;53.654;10.014;2023-05-18T07:01:03;10.00;99.90
46508;DHT22;32223;53.654;10.014;2023-05-18T07:03:29;10.20;99.90
46508;DHT22;32223;53.654;10.014;2023-05-18T07:05:54;10.20;99.90
46508;DHT22;32223;53.654;10.014;2023-05-18T07:08:20;10.30;99.90
46508;DHT22;32223;53.654;10.014;2023-05-18T07:10:46;10.30;99.90
46508;DHT22;32223;53.654;10.014;2023-05-18T07:13:12;10.40;99.90
46508;DHT22;32223;53.654;10.014;2023-05-18T07:15:38;10.30;99.90
46508;DHT22;32223;53.654;10.014;2023-05-18T07:18:03;10.40;99.90
46508;DHT22;32223;53.654;10.014;2023-05-18T07:20:29;10.50;99.90
46508;DHT22;32223;53.654;10.014;2023-05-18T07:22:54;10.70;99.90
46508;DHT22;32223;53.654;10.014;2023-05-18T07:25:21;10.70;99.90
46508;DHT22;32223;53.654;10.014;2023-05-18T07:27:46;10.70;99.90
46508;DHT22;32223;53.654;10.014;2023-05-18T07:30:12;10.50;99.90
46508;DHT22;32223;53.654;10.014;2023-05-18T07:32:38;10.50;99.90
46508;DHT22;32223;53.654;10.014;2023-05-18T07:35:04;10.60;99.90
46508;DHT22;32223;53.654;10.014;2023-05-18T07:37:30;10.60;99.90
46508;DHT22;32223;53.654;10.014;2023-05-18T07:39:55;10.60;99.90
46508;DHT22;32223;53.654;10.014;2023-05-18T07:42:21;10.70;99.90
46508;DHT22;32223;53.654;10.014;2023-05-18T07:44:47;10.50;99.90
46508;DHT22;32223;53.654;10.014;2023-05-18T07:47:12;10.70;99.90
46508;DHT22;32223;53.654;10.014;2023-05-18T07:49:38;10.80;99.90
46508;DHT22;32223;53.654;10.014;2023-05-18T07:52:06;10.90;99.90
46508;DHT22;32223;53.654;10.014;2023-05-18T07:54:32;10.80;99.90
46508;DHT22;32223;53.654;10.014;2023-05-18T07:56:58;10.80;99.90
46508;DHT22;32223;53.654;10.014;2023-05-18T07:59:24;10.60;99.90
46508;DHT22;32223;53.654;10.014;2023-05-18T08:01:49;10.60;99.90
46508;DHT22;32223;53.654;10.014;2023-05-18T08:04:15;10.70;99.90
46508;DHT22;32223;53.654;10.014;2023-05-18T08:06:40;10.60;99.90
46508;DHT22;32223;53.654;10.014;2023-05-18T08:09:06;10.80;99.90
46508;DHT22;32223;53.654;10.014;2023-05-18T08:11:32;10.90;99.90
46508;DHT22;32223;53.654;10.014;2023-05-18T08:13:57;11.00;99.90
46508;DHT22;32223;53.654;10.014;2023-05-18T08:16:23;11.20;99.90
46508;DHT22;32223;53.654;10.014;2023-05-18T08:18:49;11.10;99.90
46508;DHT22;32223;53.654;10.014;2023-05-18T08:21:15;10.90;99.90
46508;DHT22;32223;53.654;10.014;2023-05-18T08:23:41;10.80;99.90
46508;DHT22;32223;53.654;10.014;2023-05-18T08:26:07;10.60;99.90
46508;DHT22;32223;53.654;10.014;2023-05-18T08:28:33;10.70;99.90
46508;DHT22;32223;53.654;10.014;2023-05-18T08:30:59;10.80;99.90
46508;DHT22;32223;53.654;10.014;2023-05-18T08:33:25;11.20;99.90
46508;DHT22;32223;53.654;10.014;2023-05-18T08:35:50;11.60;99.90
46508;DHT22;32223;53.654;10.014;2023-05-18T08:38:16;11.90;99.90
46508;DHT22;32223;53.654;10.014;2023-05-18T08:40:58;12.20;99.90
46508;DHT22;32223;53.654;10.014;2023-05-18T08:43:28;12.30;99.90
46508;DHT22;32223;53.654;10.014;2023-05-18T08:46:25;12.30;99.90
46508;DHT22;32223;53.654;10.014;2023-05-18T08:48:51;12.20;99.90
46508;DHT22;32223;53.654;10.014;2023-05-18T08:51:19;12.20;99.90
46508;DHT22;32223;53.654;10.014;2023-05-18T08:53:51;12.10;99.90
46508;DHT22;32223;53.654;10.014;2023-05-18T08:56:22;11.90;99.90
46508;DHT22;32223;53.654;10.014;2023-05-18T08:58:49;11.70;99.90
46508;DHT22;32223;53.654;10.014;2023-05-18T09:01:16;11.60;99.90
46508;DHT22;32223;53.654;10.014;2023-05-18T09:03:43;11.80;99.90
46508;DHT22;32223;53.654;10.014;2023-05-18T09:06:09;12.00;99.90
46508;DHT22;32223;53.654;10.014;2023-05-18T09:08:35;12.10;99.90
46508;DHT22;32223;53.654;10.014;2023-05-18T09:11:01;12.20;99.90
46508;DHT22;32223;53.654;10.014;2023-05-18T09:13:28;12.30;99.90
46508;DHT22;32223;53.654;10.014;2023-05-18T09:15:54;12.60;99.90
46508;DHT22;32223;53.654;10.014;2023-05-18T09:18:20;12.60;99.90
46508;DHT22;32223;53.654;10.014;2023-05-18T09:20:46;12.70;99.90
46508;DHT22;32223;53.654;10.014;2023-05-18T09:23:12;12.60;99.90
46508;DHT22;32223;53.654;10.014;2023-05-18T09:25:45;12.50;99.90
46508;DHT22;32223;53.654;10.014;2023-05-18T09:28:12;12.50;99.90
46508;DHT22;32223;53.654;10.014;2023-05-18T09:30:42;12.40;99.90
46508;DHT22;32223;53.654;10.014;2023-05-18T09:33:18;12.50;99.90
46508;DHT22;32223;53.654;10.014;2023-05-18T09:35:46;12.60;99.90
46508;DHT22;32223;53.654;10.014;2023-05-18T09:38:16;12.60;99.90
46508;DHT22;32223;53.654;10.014;2023-05-18T09:40:47;12.80;99.90
46508;DHT22;32223;53.654;10.014;2023-05-18T09:43:13;12.60;99.90
46508;DHT22;32223;53.654;10.014;2023-05-18T09:45:44;12.70;99.90
46508;DHT22;32223;53.654;10.014;2023-05-18T09:48:10;12.70;99.90
46508;DHT22;32223;53.654;10.014;2023-05-18T09:50:36;12.40;99.90
46508;DHT22;32223;53.654;10.014;2023-05-18T09:53:05;12.40;99.90
46508;DHT22;32223;53.654;10.014;2023-05-18T09:55:35;12.40;99.90
46508;DHT22;32223;53.654;10.014;2023-05-18T09:58:02;12.50;99.90
46508;DHT22;32223;53.654;10.014;2023-05-18T10:00:29;12.40;99.90
46508;DHT22;32223;53.654;10.014;2023-05-18T10:02:54;12.50;99.90
46508;DHT22;32223;53.654;10.014;2023-05-18T10:05:22;12.40;99.90
46508;DHT22;32223;53.654;10.014;2023-05-18T10:07:53;12.70;99.90
46508;DHT22;32223;53.654;10.014;2023-05-18T10:10:22;13.10;99.90
46508;DHT22;32223;53.654;10.014;2023-05-18T10:12:52;13.40;99.90
46508;DHT22;32223;53.654;10.014;2023-05-18T10:15:20;13.50;99.90
46508;DHT22;32223;53.654;10.014;2023-05-18T10:17:47;13.50;99.90
46508;DHT22;32223;53.654;10.014;2023-05-18T10:20:21;13.70;99.90
46508;DHT22;32223;53.654;10.014;2023-05-18T10:22:49;13.90;99.90
46508;DHT22;32223;53.654;10.014;2023-05-18T10:25:20;13.90;99.90
46508;DHT22;32223;53.654;10.014;2023-05-18T10:27:51;14.20;99.90
46508;DHT22;32223;53.654;10.014;2023-05-18T10:30:19;14.30;99.90
46508;DHT22;32223;53.654;10.014;2023-05-18T10:32:47;14.40;99.90
46508;DHT22;32223;53.654;10.014;2023-05-18T10:35:13;14.00;99.90
46508;DHT22;32223;53.654;10.014;2023-05-18T10:37:43;14.10;99.90
46508;DHT22;32223;53.654;10.014;2023-05-18T10:40:12;14.20;99.90
46508;DHT22;32223;53.654;10.014;2023-05-18T10:42:39;14.10;99.90
46508;DHT22;32223;53.654;10.014;2023-05-18T10:45:06;14.30;99.90
46508;DHT22;32223;53.654;10.014;2023-05-18T10:47:35;14.40;99.90
46508;DHT22;32223;53.654;10.014;2023-05-18T10:50:04;14.30;99.90
46508;DHT22;32223;53.654;10.014;2023-05-18T10:52:31;14.30;99.90
46508;DHT22;32223;53.654;10.014;2023-05-18T10:54:57;14.30;99.90
46508;DHT22;32223;53.654;10.014;2023-05-18T10:57:48;14.20;99.90
46508;DHT22;32223;53.654;10.014;2023-05-18T11:00:11;14.20;99.90
46508;DHT22;32223;53.654;10.014;2023-05-18T11:02:39;14.20;99.90
46508;DHT22;32223;53.654;10.014;2023-05-18T11:05:07;14.40;99.90
46508;DHT22;32223;53.654;10.014;2023-05-18T11:07:34;14.60;99.90
46508;DHT22;32223;53.654;10.014;2023-05-18T11:10:07;14.60;99.90
46508;DHT22;32223;53.654;10.014;2023-05-18T11:12:36;14.70;99.90
46508;DHT22;32223;53.654;10.014;2023-05-18T11:15:03;14.80;99.90
46508;DHT22;32223;53.654;10.014;2023-05-18T11:17:30;15.00;99.90
46508;DHT22;32223;53.654;10.014;2023-05-18T11:27:52;15.30;99.90
46508;DHT22;32223;53.654;10.014;2023-05-18T11:30:28;15.60;99.90
46508;DHT22;32223;53.654;10.014;2023-05-18T11:33:13;15.70;98.50
46508;DHT22;32223;53.654;10.014;2023-05-18T11:44:02;15.30;98.20
46508;DHT22;32223;53.654;10.014;2023-05-18T11:46:31;15.10;98.30
46508;DHT22;32223;53.654;10.014;2023-05-18T11:49:10;15.30;99.90
46508;DHT22;32223;53.654;10.014;2023-05-18T11:52:04;15.60;98.20
46508;DHT22;32223;53.654;10.014;2023-05-18T11:54:48;15.80;99.50
46508;DHT22;32223;53.654;10.014;2023-05-18T11:57:15;15.80;99.10
46508;DHT22;32223;53.654;10.014;2023-05-18T11:59:44;15.90;98.60
46508;DHT22;32223;53.654;10.014;2023-05-18T12:02:11;15.90;98.30
46508;DHT22;32223;53.654;10.014;2023-05-18T12:04:42;16.20;98.20
46508;DHT22;32223;53.654;10.014;2023-05-18T12:07:09;16.40;99.70
46508;DHT22;32223;53.654;10.014;2023-05-18T12:09:39;16.50;96.40
46508;DHT22;32223;53.654;10.014;2023-05-18T12:12:06;16.40;97.60
46508;DHT22;32223;53.654;10.014;2023-05-18T12:14:34;16.30;96.80
46508;DHT22;32223;53.654;10.014;2023-05-18T12:17:00;16.10;96.10
46508;DHT22;32223;53.654;10.014;2023-05-18T12:19:26;16.00;97.40
46508;DHT22;32223;53.654;10.014;2023-05-18T12:21:52;16.30;96.50
46508;DHT22;32223;53.654;10.014;2023-05-18T12:24:18;16.30;96.30
46508;DHT22;32223;53.654;10.014;2023-05-18T12:26:44;16.40;97.40
46508;DHT22;32223;53.654;10.014;2023-05-18T12:29:11;16.90;96.70
46508;DHT22;32223;53.654;10.014;2023-05-18T12:31:44;17.40;97.90
46508;DHT22;32223;53.654;10.014;2023-05-18T12:34:10;17.80;95.30
46508;DHT22;32223;53.654;10.014;2023-05-18T12:37:01;17.60;95.40
46508;DHT22;32223;53.654;10.014;2023-05-18T12:39:25;18.00;94.20
46508;DHT22;32223;53.654;10.014;2023-05-18T12:41:51;18.10;93.70
46508;DHT22;32223;53.654;10.014;2023-05-18T12:44:17;18.20;91.70
46508;DHT22;32223;53.654;10.014;2023-05-18T12:46:43;18.30;92.30
46508;DHT22;32223;53.654;10.014;2023-05-18T12:49:09;18.30;89.00
46508;DHT22;32223;53.654;10.014;2023-05-18T12:51:37;18.50;91.10
46508;DHT22;32223;53.654;10.014;2023-05-18T12:54:05;18.30;90.10
46508;DHT22;32223;53.654;10.014;2023-05-18T12:56:52;18.60;90.00
46508;DHT22;32223;53.654;10.014;2023-05-18T12:59:25;19.00;88.90
46508;DHT22;32223;53.654;10.014;2023-05-18T13:01:54;19.00;87.00
46508;DHT22;32223;53.654;10.014;2023-05-18T13:04:21;19.20;88.10
46508;DHT22;32223;53.654;10.014;2023-05-18T13:06:47;19.50;85.20
46508;DHT22;32223;53.654;10.014;2023-05-18T13:09:14;20.00;81.30
46508;DHT22;32223;53.654;10.014;2023-05-18T13:11:45;20.30;80.70
46508;DHT22;32223;53.654;10.014;2023-05-18T13:14:10;20.60;82.90
46508;DHT22;32223;53.654;10.014;2023-05-18T13:16:38;21.00;75.60
46508;DHT22;32223;53.654;10.014;2023-05-18T13:19:08;21.80;76.30
46508;DHT22;32223;53.654;10.014;2023-05-18T13:21:35;22.20;72.80
46508;DHT22;32223;53.654;10.014;2023-05-18T13:24:01;22.50;71.70
46508;DHT22;32223;53.654;10.014;2023-05-18T13:26:27;22.50;72.60
46508;DHT22;32223;53.654;10.014;2023-05-18T13:28:54;22.50;69.60
46508;DHT22;32223;53.654;10.014;2023-05-18T13:31:21;22.50;70.00
46508;DHT22;32223;53.654;10.014;2023-05-18T13:33:48;22.70;70.90
46508;DHT22;32223;53.654;10.014;2023-05-18T13:36:14;23.50;68.30
46508;DHT22;32223;53.654;10.014;2023-05-18T13:38:40;23.40;65.40
46508;DHT22;32223;53.654;10.014;2023-05-18T13:41:11;23.00;67.40
46508;DHT22;32223;53.654;10.014;2023-05-18T13:43:39;22.70;67.30
46508;DHT22;32223;53.654;10.014;2023-05-18T13:46:05;22.50;69.30
46508;DHT22;32223;53.654;10.014;2023-05-18T13:48:31;22.70;70.20
46508;DHT22;32223;53.654;10.014;2023-05-18T13:50:56;23.40;65.90
46508;DHT22;32223;53.654;10.014;2023-05-18T13:53:22;23.20;65.00
46508;DHT22;32223;53.654;10.014;2023-05-18T13:55:51;23.40;65.70
46508;DHT22;32223;53.654;10.014;2023-05-18T13:58:16;23.20;68.10
46508;DHT22;32223;53.654;10.014;2023-05-18T14:00:45;23.60;65.30
46508;DHT22;32223;53.654;10.014;2023-05-18T14:03:11;23.00;67.30
46508;DHT22;32223;53.654;10.014;2023-05-18T14:05:36;23.00;65.60
46508;DHT22;32223;53.654;10.014;2023-05-18T14:08:02;23.10;67.90
46508;DHT22;32223;53.654;10.014;2023-05-18T14:10:28;23.40;65.40
46508;DHT22;32223;53.654;10.014;2023-05-18T14:12:54;23.60;64.60
46508;DHT22;32223;53.654;10.014;2023-05-18T14:15:19;23.10;66.10
46508;DHT22;32223;53.654;10.014;2023-05-18T14:17:45;23.60;65.20
46508;DHT22;32223;53.654;10.014;2023-05-18T14:20:11;23.50;63.40
46508;DHT22;32223;53.654;10.014;2023-05-18T14:22:38;23.40;64.70
46508;DHT22;32223;53.654;10.014;2023-05-18T14:25:04;23.30;64.10
46508;DHT22;32223;53.654;10.014;2023-05-18T14:27:29;23.70;62.70
46508;DHT22;32223;53.654;10.014;2023-05-18T14:29:56;23.60;65.70
46508;DHT22;32223;53.654;10.014;2023-05-18T14:32:21;24.00;63.20
46508;DHT22;32223;53.654;10.014;2023-05-18T14:34:48;24.30;64.80
46508;DHT22;32223;53.654;10.014;2023-05-18T14:37:16;24.60;62.60
46508;DHT22;32223;53.654;10.014;2023-05-18T14:39:42;25.20;63.20
46508;DHT22;32223;53.654;10.014;2023-05-18T14:42:08;25.50;59.80
46508;DHT22;32223;53.654;10.014;2023-05-18T14:44:33;25.10;60.40
46508;DHT22;32223;53.654;10.014;2023-05-18T14:46:59;24.70;59.90
46508;DHT22;32223;53.654;10.014;2023-05-18T14:49:25;24.70;60.00
46508;DHT22;32223;53.654;10.014;2023-05-18T14:51:51;24.80;59.60
46508;DHT22;32223;53.654;10.014;2023-05-18T14:54:16;24.90;59.30
46508;DHT22;32223;53.654;10.014;2023-05-18T14:56:43;24.60;60.30
46508;DHT22;32223;53.654;10.014;2023-05-18T14:59:09;24.80;57.70
46508;DHT22;32223;53.654;10.014;2023-05-18T15:01:35;24.60;59.50
46508;DHT22;32223;53.654;10.014;2023-05-18T15:04:00;24.60;58.80
46508;DHT22;32223;53.654;10.014;2023-05-18T15:06:27;24.40;59.50
46508;DHT22;32223;53.654;10.014;2023-05-18T15:08:52;24.40;59.40
46508;DHT22;32223;53.654;10.014;2023-05-18T15:11:18;24.40;58.70
46508;DHT22;32223;53.654;10.014;2023-05-18T15:13:45;24.60;59.70
46508;DHT22;32223;53.654;10.014;2023-05-18T15:16:10;23.90;59.70
46508;DHT22;32223;53.654;10.014;2023-05-18T15:18:37;23.80;60.20
46508;DHT22;32223;53.654;10.014;2023-05-18T15:21:02;24.10;59.90
46508;DHT22;32223;53.654;10.014;2023-05-18T15:23:28;24.30;59.10
46508;DHT22;32223;53.654;10.014;2023-05-18T15:25:54;24.20;58.70
46508;DHT22;32223;53.654;10.014;2023-05-18T15:28:20;24.30;58.10
46508;DHT22;32223;53.654;10.014;2023-05-18T15:30:45;23.90;59.40
46508;DHT22;32223;53.654;10.014;2023-05-18T15:33:11;23.90;59.30
46508;DHT22;32223;53.654;10.014;2023-05-18T15:35:36;23.80;59.70
46508;DHT22;32223;53.654;10.014;2023-05-18T15:38:03;23.60;59.50
46508;DHT22;32223;53.654;10.014;2023-05-18T15:40:29;24.00;58.90
46508;DHT22;32223;53.654;10.014;2023-05-18T15:42:55;23.70;59.50
46508;DHT22;32223;53.654;10.014;2023-05-18T15:45:20;24.10;58.90
46508;DHT22;32223;53.654;10.014;2023-05-18T15:47:46;24.00;59.10
46508;DHT22;32223;53.654;10.014;2023-05-18T15:50:11;23.50;60.60